createdAt,value
2024-01-21T00:01:43.019Z,78.74
2024-01-21T00:04:13.549Z,78.94
2024-01-21T00:06:42.582Z,79.02
2024-01-21T00:09:12.965Z,79.17
2024-01-21T00:11:41.575Z,78.37
2024-01-21T00:14:09.941Z,77.75
2024-01-21T00:16:40.457Z,77.92
2024-01-21T00:19:08.870Z,77.85
2024-01-21T00:21:37.203Z,77.83
2024-01-21T00:24:06.445Z,77.96
2024-01-21T00:26:36.480Z,77.81
2024-01-21T00:29:04.749Z,78.08
2024-01-21T00:31:35.480Z,77.99
2024-01-21T00:34:04.176Z,78.32
2024-01-21T00:36:32.544Z,78.38
2024-01-21T00:39:01.136Z,78.05
2024-01-21T00:41:30.029Z,78.58
2024-01-21T00:43:59.681Z,79.21
2024-01-21T00:46:28.157Z,78.61
2024-01-21T00:49:02.722Z,79.19
2024-01-21T00:51:31.135Z,79.00
2024-01-21T00:53:59.422Z,79.37
2024-01-21T00:56:27.953Z,79.26
2024-01-21T00:58:56.234Z,79.21
2024-01-21T01:01:26.140Z,79.72
2024-01-21T01:03:59.011Z,79.15
2024-01-21T01:06:28.232Z,79.30
2024-01-21T01:08:57.135Z,79.00
2024-01-21T01:11:26.232Z,79.08
2024-01-21T01:13:54.518Z,78.98
2024-01-21T01:16:23.630Z,78.68
2024-01-21T01:18:53.761Z,79.34
2024-01-21T01:21:22.275Z,78.96
2024-01-21T01:23:51.152Z,80.23
2024-01-21T01:26:20.135Z,79.62
2024-01-21T01:28:48.549Z,79.55
2024-01-21T01:31:19.509Z,79.60
2024-01-21T01:33:48.509Z,79.25
2024-01-21T01:36:18.367Z,79.06
2024-01-21T01:38:46.918Z,79.41
2024-01-21T01:41:15.360Z,79.10
2024-01-21T01:43:43.670Z,78.91
2024-01-21T01:46:12.978Z,79.11
2024-01-21T01:48:41.536Z,78.88
2024-01-21T01:51:10.832Z,79.01
2024-01-21T01:53:40.499Z,78.90
2024-01-21T01:56:10.123Z,78.63
2024-01-21T01:58:40.706Z,78.00
2024-01-21T02:01:09.866Z,78.60
2024-01-21T02:03:38.567Z,78.29
2024-01-21T02:06:08.468Z,78.15
2024-01-21T02:08:36.956Z,77.58
2024-01-21T02:11:06.775Z,77.25
2024-01-21T02:13:35.181Z,77.42
2024-01-21T02:16:04.590Z,76.99
2024-01-21T02:18:34.758Z,77.82
2024-01-21T02:21:03.184Z,76.78
2024-01-21T02:23:33.010Z,76.74
2024-01-21T02:26:01.448Z,76.32
2024-01-21T02:28:29.765Z,76.21
2024-01-21T02:30:58.252Z,76.54
2024-01-21T02:33:27.607Z,76.58
2024-01-21T02:35:56.156Z,76.57
2024-01-21T02:38:24.744Z,75.63
2024-01-21T02:40:54.499Z,75.69
2024-01-21T02:43:22.825Z,75.75
2024-01-21T02:45:51.332Z,75.75
2024-01-21T02:48:19.814Z,76.39
2024-01-21T02:50:48.463Z,75.95
2024-01-21T02:53:16.737Z,75.84
2024-01-21T02:55:45.332Z,75.83
2024-01-21T02:58:15.022Z,76.29
2024-01-21T03:00:43.552Z,75.90
2024-01-21T03:03:12.110Z,75.65
2024-01-21T03:05:50.552Z,74.99
2024-01-21T03:08:28.529Z,75.56
2024-01-21T03:10:56.949Z,75.18
2024-01-21T03:13:26.586Z,75.52
2024-01-21T03:15:55.727Z,74.65
2024-01-21T03:18:24.378Z,74.84
2024-01-21T03:20:53.197Z,74.98
2024-01-21T03:23:21.490Z,74.99
2024-01-21T03:25:49.899Z,75.29
2024-01-21T03:28:24.246Z,75.34
2024-01-21T03:30:54.170Z,74.65
2024-01-21T03:33:23.515Z,75.46
2024-01-21T03:35:52.081Z,75.52
2024-01-21T03:38:20.620Z,74.57
2024-01-21T03:40:48.940Z,74.63
2024-01-21T03:43:19.069Z,75.23
2024-01-21T03:45:47.645Z,75.27
2024-01-21T03:48:17.298Z,74.52
2024-01-21T03:50:45.949Z,74.67
2024-01-21T03:53:14.219Z,74.79
2024-01-21T03:55:42.707Z,74.09
2024-01-21T03:58:11.293Z,74.22
2024-01-21T04:00:39.783Z,74.03
2024-01-21T04:03:08.237Z,74.58
2024-01-21T04:05:38.084Z,74.69
2024-01-21T04:08:07.528Z,74.01
2024-01-21T04:10:35.967Z,73.51
2024-01-21T04:13:07.478Z,73.34
2024-01-21T04:15:36.885Z,72.40
2024-01-21T04:18:06.161Z,73.53
2024-01-21T04:20:34.609Z,73.97
2024-01-21T04:23:04.391Z,74.32
2024-01-21T04:25:32.972Z,74.47
2024-01-21T04:28:01.646Z,74.75
2024-01-21T04:30:31.124Z,74.74
2024-01-21T04:33:01.086Z,75.01
2024-01-21T04:35:29.434Z,74.89
2024-01-21T04:37:57.758Z,74.49
2024-01-21T04:40:27.656Z,74.28
2024-01-21T04:42:56.131Z,74.65
2024-01-21T04:45:24.512Z,74.10
2024-01-21T04:47:52.863Z,73.80
2024-01-21T04:50:21.332Z,73.27
2024-01-21T04:52:48.769Z,73.33
2024-01-21T04:55:17.263Z,73.08
2024-01-21T04:57:47.847Z,72.37
2024-01-21T05:00:18.154Z,72.53
2024-01-21T05:02:46.740Z,72.21
2024-01-21T05:05:15.235Z,72.17
2024-01-21T05:07:46.157Z,71.68
2024-01-21T05:10:14.870Z,71.03
2024-01-21T05:12:43.224Z,70.24
2024-01-21T05:15:13.893Z,70.08
2024-01-21T05:17:42.215Z,70.15
2024-01-21T05:20:12.659Z,69.92
2024-01-21T05:22:41.122Z,69.33
2024-01-21T05:25:09.495Z,70.40
2024-01-21T05:27:38.196Z,69.89
2024-01-21T05:30:08.684Z,70.32
2024-01-21T05:32:38.345Z,70.10
2024-01-21T05:35:08.726Z,70.76
2024-01-21T05:37:37.170Z,70.02
2024-01-21T05:40:06.627Z,69.78
2024-01-21T05:42:35.168Z,70.11
2024-01-21T05:45:05.082Z,70.53
2024-01-21T05:47:33.665Z,70.80
2024-01-21T05:50:03.964Z,71.45
2024-01-21T05:52:34.256Z,71.48
2024-01-21T05:55:02.660Z,71.71
2024-01-21T05:57:31.009Z,72.47
2024-01-21T05:59:59.653Z,72.83
2024-01-21T06:02:27.960Z,72.49
2024-01-21T06:04:56.662Z,72.93
2024-01-21T06:07:26.489Z,73.17
2024-01-21T06:09:55.089Z,73.64
2024-01-21T06:12:23.539Z,73.07
2024-01-21T06:14:51.824Z,73.44
2024-01-21T06:17:20.252Z,74.07
2024-01-21T06:19:48.572Z,74.40
2024-01-21T06:22:16.972Z,74.56
2024-01-21T06:24:46.682Z,75.28
2024-01-21T06:27:15.209Z,75.37
2024-01-21T06:29:46.867Z,75.66
2024-01-21T06:32:15.150Z,75.28
2024-01-21T06:34:43.750Z,75.58
2024-01-21T06:37:12.102Z,76.11
2024-01-21T06:39:40.500Z,77.32
2024-01-21T06:42:10.301Z,77.48
2024-01-21T06:44:38.532Z,77.84
2024-01-21T06:47:06.956Z,77.12
2024-01-21T06:49:35.396Z,77.82
2024-01-21T06:52:05.781Z,77.80
2024-01-21T06:54:34.093Z,78.22
2024-01-21T06:57:02.396Z,78.88
2024-01-21T06:59:32.095Z,79.10
2024-01-21T07:02:00.569Z,79.34
2024-01-21T07:04:38.941Z,79.11
2024-01-21T07:07:08.446Z,78.92
2024-01-21T07:09:42.858Z,78.74
2024-01-21T07:12:11.234Z,79.42
2024-01-21T07:14:40.860Z,79.26
2024-01-21T07:17:09.137Z,79.37
2024-01-21T07:19:37.509Z,79.69
2024-01-21T07:22:06.800Z,78.97
2024-01-21T07:24:35.077Z,79.18
2024-01-21T07:27:04.280Z,79.71
2024-01-21T07:29:32.570Z,78.43
2024-01-21T07:32:02.233Z,78.84
2024-01-21T07:34:31.464Z,78.84
2024-01-21T07:37:00.508Z,77.81
2024-01-21T07:39:28.859Z,78.90
2024-01-21T07:41:57.204Z,79.04
2024-01-21T07:44:25.978Z,79.27
2024-01-21T07:46:54.615Z,78.74
2024-01-21T07:49:24.628Z,79.32
2024-01-21T07:51:53.539Z,79.16
2024-01-21T07:54:22.013Z,79.46
2024-01-21T07:56:50.321Z,79.87
2024-01-21T07:59:19.277Z,79.45
2024-01-21T08:01:47.751Z,79.47
2024-01-21T08:04:17.244Z,79.33
2024-01-21T08:06:46.994Z,79.25
2024-01-21T08:09:20.094Z,79.16
2024-01-21T08:11:49.325Z,80.26
2024-01-21T08:14:17.926Z,79.72
2024-01-21T08:16:46.174Z,80.17
2024-01-21T08:19:16.495Z,79.68
2024-01-21T08:21:46.652Z,79.81
2024-01-21T08:24:15.223Z,79.57
2024-01-21T08:26:43.764Z,80.33
2024-01-21T08:29:12.071Z,80.59
2024-01-21T08:31:45.205Z,80.21
2024-01-21T08:34:13.996Z,80.10
2024-01-21T08:36:43.253Z,80.75
2024-01-21T08:39:13.377Z,80.63
2024-01-21T08:41:41.634Z,80.33
2024-01-21T08:44:10.086Z,80.30
2024-01-21T08:46:39.102Z,80.41
2024-01-21T08:49:07.648Z,79.06
2024-01-21T08:51:36.046Z,79.58
2024-01-21T08:54:04.849Z,79.33
2024-01-21T08:56:36.531Z,79.76
2024-01-21T08:59:05.006Z,79.31
2024-01-21T09:01:33.445Z,78.00
2024-01-21T09:04:03.722Z,78.67
2024-01-21T09:06:34.617Z,76.63
2024-01-21T09:09:03.272Z,75.52
2024-01-21T09:11:32.022Z,76.25
2024-01-21T09:14:01.815Z,76.36
2024-01-21T09:16:30.834Z,75.58
2024-01-21T09:18:59.938Z,74.75
2024-01-21T09:21:33.408Z,74.65
2024-01-21T09:24:06.184Z,74.87
2024-01-21T09:26:35.188Z,74.64
2024-01-21T09:29:05.304Z,73.44
2024-01-21T09:31:35.767Z,73.22
2024-01-21T09:34:04.699Z,73.92
2024-01-21T09:36:35.517Z,73.72
2024-01-21T09:39:06.143Z,73.95
2024-01-21T09:41:40.627Z,72.74
2024-01-21T09:44:13.412Z,73.31
2024-01-21T09:46:41.765Z,73.98
2024-01-21T09:49:12.919Z,72.24
2024-01-21T09:51:44.722Z,72.52
2024-01-21T09:54:13.494Z,72.36
2024-01-21T09:56:44.390Z,71.90
2024-01-21T09:59:15.934Z,71.72
2024-01-21T10:01:43.500Z,72.49
2024-01-21T10:04:12.951Z,71.39
2024-01-21T10:06:41.565Z,70.65
2024-01-21T10:09:14.152Z,71.81
2024-01-21T10:11:42.916Z,71.05
2024-01-21T10:14:11.559Z,70.98
2024-01-21T10:16:44.998Z,69.63
2024-01-21T10:19:17.142Z,69.55
2024-01-21T10:21:45.811Z,69.91
2024-01-21T10:24:14.189Z,69.44
2024-01-21T10:26:44.993Z,70.34
2024-01-21T10:29:13.282Z,70.68
2024-01-21T10:31:44.048Z,70.27
2024-01-21T10:34:15.244Z,69.77
2024-01-21T10:36:48.978Z,69.64
2024-01-21T10:39:23.301Z,70.10
2024-01-21T10:41:54.025Z,70.04
2024-01-21T10:44:23.758Z,69.88
2024-01-21T10:46:55.710Z,70.45
2024-01-21T10:49:24.322Z,70.80
2024-01-21T10:51:55.516Z,70.88
2024-01-21T10:54:25.646Z,71.00
2024-01-21T10:56:54.599Z,70.66
2024-01-21T10:59:23.351Z,70.83
2024-01-21T11:01:53.624Z,70.81
2024-01-21T11:04:24.447Z,70.84
2024-01-21T11:06:56.092Z,71.87
2024-01-21T11:09:28.096Z,72.50
2024-01-21T11:11:56.903Z,71.57
2024-01-21T11:14:33.647Z,71.06
2024-01-21T11:17:05.868Z,72.65
2024-01-21T11:19:41.856Z,73.42
2024-01-21T11:22:16.036Z,72.35
2024-01-21T11:24:48.127Z,72.22
2024-01-21T11:27:19.541Z,72.12
2024-01-21T11:29:50.704Z,71.19
2024-01-21T11:32:27.443Z,71.57
2024-01-21T11:34:57.153Z,72.24
2024-01-21T11:37:25.826Z,72.69
2024-01-21T11:39:54.482Z,71.93
2024-01-21T11:42:24.656Z,70.70
2024-01-21T11:44:53.205Z,69.55
2024-01-21T11:47:23.466Z,69.51
2024-01-21T11:49:53.066Z,69.20
2024-01-21T11:52:23.051Z,69.25
2024-01-21T11:54:51.354Z,69.42
2024-01-21T11:57:21.014Z,68.71
2024-01-21T11:59:50.478Z,68.15
2024-01-21T12:02:20.572Z,68.17
2024-01-21T12:04:50.550Z,69.75
2024-01-21T12:07:20.030Z,69.14
2024-01-21T12:09:49.057Z,68.96
2024-01-21T12:12:19.070Z,69.88
2024-01-21T12:14:52.700Z,68.86
2024-01-21T12:17:22.624Z,69.58
2024-01-21T12:19:52.500Z,68.98
2024-01-21T12:22:38.802Z,68.52
2024-01-21T12:25:10.146Z,66.70
2024-01-21T12:27:38.607Z,65.22
2024-01-21T12:30:14.041Z,65.48
2024-01-21T12:32:50.335Z,63.34
2024-01-21T12:35:26.462Z,62.59
2024-01-21T12:37:55.481Z,61.73
2024-01-21T12:40:24.028Z,61.63
2024-01-21T12:42:52.582Z,59.60
2024-01-21T12:45:21.148Z,58.54
2024-01-21T12:47:49.961Z,58.11
2024-01-21T12:50:18.360Z,57.79
2024-01-21T12:52:48.205Z,56.96
2024-01-21T12:55:16.751Z,55.48
2024-01-21T12:57:45.461Z,56.14
2024-01-21T13:00:15.842Z,56.73
2024-01-21T13:02:45.227Z,57.57
2024-01-21T13:05:18.892Z,57.53
2024-01-21T13:07:48.605Z,58.83
2024-01-21T13:10:16.835Z,59.90
2024-01-21T13:12:45.247Z,60.65
2024-01-21T13:15:13.725Z,59.89
2024-01-21T13:17:42.220Z,62.12
2024-01-21T13:20:12.096Z,62.17
2024-01-21T13:22:40.379Z,61.64
2024-01-21T13:25:10.780Z,62.26
2024-01-21T13:27:44.654Z,62.74
2024-01-21T13:30:32.021Z,63.11
2024-01-21T13:33:00.551Z,63.21
2024-01-21T13:35:30.134Z,62.63
2024-01-21T13:37:59.033Z,64.30
2024-01-21T13:40:29.113Z,64.85
2024-01-21T13:42:58.246Z,63.09
2024-01-21T13:45:26.584Z,63.84
2024-01-21T13:47:54.887Z,62.74
2024-01-21T13:50:23.563Z,63.28
2024-01-21T13:52:52.005Z,63.69
2024-01-21T13:55:20.320Z,63.77
2024-01-21T13:57:50.167Z,64.13
2024-01-21T14:00:20.070Z,64.65
2024-01-21T14:02:48.817Z,65.30
2024-01-21T14:05:17.295Z,64.63
2024-01-21T14:07:46.190Z,66.58
2024-01-21T14:10:14.491Z,66.89
2024-01-21T14:12:44.953Z,66.59
2024-01-21T14:15:15.756Z,66.14
2024-01-21T14:17:44.486Z,66.21
2024-01-21T14:20:14.839Z,66.86
2024-01-21T14:22:45.195Z,67.07
2024-01-21T14:25:21.426Z,65.55
2024-01-21T14:27:50.203Z,62.47
2024-01-21T14:30:27.385Z,59.31
2024-01-21T14:32:55.953Z,55.86
2024-01-21T14:35:24.257Z,55.74
2024-01-21T14:37:53.229Z,53.51
2024-01-21T14:40:24.448Z,53.41
2024-01-21T14:42:53.379Z,52.63
2024-01-21T14:45:23.471Z,51.20
2024-01-21T14:47:52.898Z,51.81
2024-01-21T14:50:21.845Z,50.48
2024-01-21T14:52:51.338Z,50.79
2024-01-21T14:55:20.495Z,52.65
2024-01-21T14:57:49.076Z,53.07
2024-01-21T15:00:18.923Z,53.46
2024-01-21T15:02:48.603Z,54.14
2024-01-21T15:05:16.993Z,54.87
2024-01-21T15:07:48.783Z,54.68
2024-01-21T15:10:17.992Z,54.64
2024-01-21T15:12:47.281Z,56.12
2024-01-21T15:15:31.443Z,57.86
2024-01-21T15:18:02.522Z,58.96
2024-01-21T15:20:31.394Z,59.72
2024-01-21T15:23:00.135Z,61.54
2024-01-21T15:25:30.000Z,61.90
2024-01-21T15:27:59.174Z,62.74
2024-01-21T15:30:27.849Z,62.85
2024-01-21T15:32:57.859Z,64.37
2024-01-21T15:35:27.477Z,65.26
2024-01-21T15:37:55.897Z,65.89
2024-01-21T15:40:24.238Z,65.97
2024-01-21T15:42:52.825Z,66.91
2024-01-21T15:45:21.147Z,66.05
2024-01-21T15:47:50.588Z,66.97
2024-01-21T15:50:19.177Z,68.58
2024-01-21T15:52:49.047Z,69.65
2024-01-21T15:55:18.807Z,71.06
2024-01-21T15:57:47.191Z,70.59
2024-01-21T16:00:16.812Z,71.83
2024-01-21T16:02:45.462Z,72.19
2024-01-21T16:05:15.299Z,71.92
2024-01-21T16:07:43.714Z,72.65
2024-01-21T16:10:13.604Z,73.59
2024-01-21T16:12:41.947Z,73.62
2024-01-21T16:15:11.588Z,74.45
2024-01-21T16:17:40.210Z,75.51
2024-01-21T16:20:10.144Z,76.04
2024-01-21T16:22:38.737Z,76.67
2024-01-21T16:25:08.619Z,76.79
2024-01-21T16:27:38.884Z,77.00
2024-01-21T16:30:09.071Z,77.36
2024-01-21T16:32:37.832Z,77.63
2024-01-21T16:35:08.392Z,78.08
2024-01-21T16:37:36.897Z,77.77
2024-01-21T16:40:06.562Z,77.39
2024-01-21T16:42:35.260Z,77.49
2024-01-21T16:45:06.067Z,78.36
2024-01-21T16:47:35.599Z,78.41
2024-01-21T16:50:07.329Z,78.13
2024-01-21T16:52:39.919Z,78.13
2024-01-21T16:55:09.276Z,77.75
2024-01-21T16:57:38.326Z,77.88
2024-01-21T17:00:22.097Z,77.94
2024-01-21T17:02:51.121Z,78.25
2024-01-21T17:05:20.436Z,78.41
2024-01-21T17:07:49.584Z,77.57
2024-01-21T17:10:23.322Z,76.84
2024-01-21T17:12:53.081Z,77.62
2024-01-21T17:15:23.954Z,78.68
2024-01-21T17:17:59.755Z,79.76
2024-01-21T17:20:28.438Z,79.73
2024-01-21T17:22:57.515Z,80.19
2024-01-21T17:25:25.807Z,80.51
2024-01-21T17:27:54.196Z,80.49
2024-01-21T17:30:23.776Z,80.30
2024-01-21T17:32:52.296Z,80.47
2024-01-21T17:35:20.962Z,79.90
2024-01-21T17:37:49.643Z,80.23
2024-01-21T17:40:19.183Z,80.53
2024-01-21T17:42:47.603Z,80.41
2024-01-21T17:45:16.996Z,80.26
2024-01-21T17:47:47.198Z,80.73
2024-01-21T17:50:16.831Z,81.02
2024-01-21T17:52:45.178Z,80.58
2024-01-21T17:55:13.729Z,80.61
2024-01-21T17:57:42.536Z,81.23
2024-01-21T18:00:13.233Z,81.23
2024-01-21T18:02:42.044Z,81.25
2024-01-21T18:05:13.283Z,81.47
2024-01-21T18:07:41.836Z,81.98
2024-01-21T18:10:11.346Z,81.30
2024-01-21T18:12:39.882Z,81.50
2024-01-21T18:15:09.550Z,82.39
2024-01-21T18:17:38.049Z,82.48
2024-01-21T18:20:09.424Z,82.84
2024-01-21T18:22:39.104Z,83.09
2024-01-21T18:25:09.435Z,83.49
2024-01-21T18:27:39.699Z,83.27
2024-01-21T18:30:10.603Z,82.84
2024-01-21T18:32:39.788Z,82.53
2024-01-21T18:35:09.869Z,83.15
2024-01-21T18:37:41.397Z,84.05
2024-01-21T18:40:11.743Z,84.52
2024-01-21T18:42:40.408Z,83.91
2024-01-21T18:45:10.574Z,83.77
2024-01-21T18:47:39.678Z,84.45
2024-01-21T18:50:09.437Z,83.72
2024-01-21T18:52:39.485Z,83.43
2024-01-21T18:55:08.461Z,84.11
2024-01-21T18:57:37.786Z,85.26
2024-01-21T19:00:08.851Z,84.61
2024-01-21T19:02:37.660Z,84.88
2024-01-21T19:05:17.094Z,85.91
2024-01-21T19:07:47.181Z,85.63
2024-01-21T19:10:15.655Z,84.77
2024-01-21T19:12:51.106Z,84.43
2024-01-21T19:15:19.897Z,85.06
2024-01-21T19:17:48.911Z,86.50
2024-01-21T19:20:17.427Z,85.06
2024-01-21T19:22:47.066Z,87.00
2024-01-21T19:25:15.748Z,86.53
2024-01-21T19:27:44.571Z,86.35
2024-01-21T19:30:14.936Z,87.27
2024-01-21T19:32:43.904Z,86.12
2024-01-21T19:35:12.224Z,86.24
2024-01-21T19:37:40.585Z,85.83
2024-01-21T19:40:11.918Z,85.54
2024-01-21T19:42:40.412Z,84.49
2024-01-21T19:45:09.626Z,84.22
2024-01-21T19:47:39.748Z,84.32
2024-01-21T19:50:09.691Z,84.30
2024-01-21T19:52:39.103Z,84.36
2024-01-21T19:55:09.202Z,84.98
2024-01-21T19:57:40.168Z,83.87
2024-01-21T20:00:10.023Z,83.72
2024-01-21T20:02:38.444Z,82.46
2024-01-21T20:05:10.335Z,82.17
2024-01-21T20:07:38.740Z,81.91
2024-01-21T20:10:08.880Z,82.72
2024-01-21T20:12:37.681Z,81.44
2024-01-21T20:15:09.594Z,81.43
2024-01-21T20:17:38.536Z,81.34
2024-01-21T20:20:08.855Z,81.66
2024-01-21T20:22:37.298Z,80.30
2024-01-21T20:25:07.155Z,80.87
2024-01-21T20:27:36.352Z,80.90
2024-01-21T20:30:06.733Z,81.25
2024-01-21T20:32:37.948Z,82.15
2024-01-21T20:35:08.547Z,80.83
2024-01-21T20:37:37.435Z,81.14
2024-01-21T20:40:08.169Z,81.18
2024-01-21T20:42:36.840Z,80.78
2024-01-21T20:45:05.933Z,81.38
2024-01-21T20:47:36.069Z,80.89
2024-01-21T20:50:05.564Z,81.11
2024-01-21T20:52:35.449Z,82.79
2024-01-21T20:55:05.672Z,82.04
2024-01-21T20:57:34.668Z,82.91
2024-01-21T21:00:03.150Z,82.76
2024-01-21T21:02:31.715Z,83.16
2024-01-21T21:05:01.449Z,82.66
2024-01-21T21:07:31.695Z,81.96
2024-01-21T21:10:00.635Z,82.75
2024-01-21T21:12:29.107Z,82.46
2024-01-21T21:14:57.375Z,81.83
2024-01-21T21:17:26.934Z,81.90
2024-01-21T21:19:55.630Z,81.62
2024-01-21T21:22:25.711Z,79.92
2024-01-21T21:24:59.149Z,79.73
2024-01-21T21:27:29.141Z,79.27
2024-01-21T21:29:57.510Z,78.40
2024-01-21T21:32:25.982Z,77.90
2024-01-21T21:34:54.698Z,78.64
2024-01-21T21:37:25.366Z,78.05
2024-01-21T21:39:54.003Z,78.12
2024-01-21T21:42:22.342Z,76.87
2024-01-21T21:44:51.625Z,76.16
2024-01-21T21:47:20.013Z,75.56
2024-01-21T21:49:50.698Z,75.11
2024-01-21T21:52:19.104Z,75.49
2024-01-21T21:54:49.076Z,77.32
2024-01-21T21:57:17.760Z,78.96
2024-01-21T21:59:56.517Z,79.17
2024-01-21T22:02:25.094Z,79.43
2024-01-21T22:04:53.926Z,79.77
2024-01-21T22:07:22.601Z,79.77
2024-01-21T22:09:52.294Z,80.94
2024-01-21T22:12:21.446Z,83.01
2024-01-21T22:14:50.518Z,82.80
2024-01-21T22:17:18.924Z,83.50
2024-01-21T22:19:46.860Z,83.81
2024-01-21T22:22:17.665Z,82.44
2024-01-21T22:24:46.984Z,80.25
2024-01-21T22:27:18.775Z,77.21
2024-01-21T22:29:47.717Z,75.90
2024-01-21T22:32:16.629Z,74.56
2024-01-21T22:34:45.205Z,73.61
2024-01-21T22:37:14.371Z,71.41
2024-01-21T22:39:43.129Z,70.66
2024-01-21T22:42:11.775Z,69.01
2024-01-21T22:44:41.608Z,68.96
2024-01-21T22:47:09.966Z,68.75
2024-01-21T22:49:40.309Z,67.90
2024-01-21T22:52:09.149Z,66.38
2024-01-21T22:54:38.173Z,66.88
2024-01-21T22:57:07.133Z,67.05
2024-01-21T22:59:35.832Z,66.82
2024-01-21T23:02:06.320Z,67.32
2024-01-21T23:04:34.980Z,67.81
2024-01-21T23:07:10.651Z,68.07
2024-01-21T23:09:40.568Z,68.32
2024-01-21T23:12:09.254Z,68.62
2024-01-21T23:14:37.911Z,68.39
2024-01-21T23:17:08.155Z,68.27
2024-01-21T23:19:36.503Z,68.49
2024-01-21T23:22:05.048Z,68.42
2024-01-21T23:24:33.560Z,68.39
2024-01-21T23:27:02.245Z,68.01
2024-01-21T23:29:30.639Z,67.29
2024-01-21T23:31:59.118Z,66.43
2024-01-21T23:34:28.872Z,65.98
2024-01-21T23:36:57.284Z,65.42
2024-01-21T23:39:25.854Z,64.90
2024-01-21T23:41:54.800Z,64.51
2024-01-21T23:44:23.310Z,64.77
2024-01-21T23:46:51.919Z,64.84
2024-01-21T23:49:20.502Z,64.91
2024-01-21T23:51:50.502Z,65.35
2024-01-21T23:54:18.768Z,65.07
2024-01-21T23:56:47.861Z,65.68
2024-01-21T23:59:17.127Z,65.29
